Elmwood Park, New Jersey
Current Conditions -  °F | °C
As of 8:51 AM on Wednesday 22 Oct 2014 (Local Time) from KTEB Reporting Station
Light Rain Light Rain  
Wind Chill: 55°   Ceiling: 1600
Heat Index: 55°   Visibility: 7mi
Dew Point: 50°   Wind: 8mph
Humidity: 83%   Direction: 10°N
Pressure: 29.93"   Gusts: NA
Location:  40.9°N, 74.12°W
Report Text: KTEB 221251Z 01007KT 7SM -RA BKN016 BKN044 OVC085 13/10 A2993 RMK AO2 SLP134 P0002 T01280100
Loading
Personal Weather Stations






























Interactive Weather Map
Tropical Storm Tracking
New forecast layout! Learn more

10-Day Weather Forecast

Advertisements
Track Severe Weather on mobile